Resums METAR propers

 

LIBV - Gioia Del Colle, Italy
Distància des de l'estació: SSE 15km
Actualització: 21/10/2018 00:55
NO actualitzat
Parcialment cobert
Parcialment cobert
 Vent del NO
Vent: NO 17 km/h
Temperatura: 15°C
Rosada: 12°C
Humitat: 82%
Baròmetre: 1020 hPa
Nuvolositat: Parcialment cobert
Visibilitat: 6 km
2018/10/20 22:55 LIBV 202255Z 31009KT 6000 NSC 15/12 Q1020 RMK FEW FEW250 VIS MIN 6000 WIND THR32 32010KT WIND THR14 31008KT WHT
LIBD - Bari/Palese Macc, Italy
Distància des de l'estació: NNO 26km
Actualització: 21/10/2018 01:50
Seré
Seré
 Vent del O
Vent: O 17 km/h
Temperatura: 15°C
Rosada: 13°C
Humitat: 88%
Baròmetre: 1020 hPa
Resum: Seré
Visibilitat: major de 10 km
2018/10/20 23:50 LIBD 202350Z 28009KT CAVOK 15/13 Q1020
LIBH - Marina Di Ginosa, Italy
Distància des de l'estació: S 53km
Actualització: 21/10/2018 01:55
Parcialment cobert
Parcialment cobert
 Vent del ONO
Vent: ONO 6 km/h
Temperatura: 17°C
Rosada: 14°C
Humitat: 83%
Baròmetre: 1018 hPa
Nuvolositat: Parcialment cobert
Visibilitat: 10 km
Detalls nuvolositat: Parcialment cobert 762 m
2018/10/20 23:55 LIBH 202355Z 30003KT 9999 SCT025 17/14 Q1018 RMK SCT QUK / QUL / VIS MAR 10 KM VIS MIN 9999
 
LIBG - Grottaglie(Civ/A, Italy
Distància des de l'estació: SE 61km
Actualització: 20/10/2018 19:50
NO actualitzat
Seré
Seré
 Vent del N
Vent: N 17 km/h
Temperatura: 17°C
Rosada: 15°C
Humitat: 88%
Baròmetre: 1018 hPa
Resum: Seré
Visibilitat: major de 10 km
2018/10/20 17:50 LIBG 201750Z 01009KT CAVOK 17/15 Q1018
LIBR - Brindisi/Casale, Italy
Distància des de l'estació: ESE 96km
Actualització: 21/10/2018 01:50
Alguns núvols
Alguns núvols
 Vent del ONO
Vent: ONO 28 km/h
Temperatura: 18°C
Rosada: 16°C
Humitat: 88%
Baròmetre: 1018 hPa
Nuvolositat: Alguns núvols
Visibilitat: 8 km
Detalls nuvolositat: Alguns núvols 396 m
2018/10/20 23:50 LIBR 202350Z 29015KT 8000 FEW013 18/16 Q1018
LIBA - Amendola (it-Afb, Italy
Distància des de l'estació: NO 118km
Actualització: 19/10/2018 22:55
NO actualitzat
Parcialment cobert
Parcialment cobert
 Vent del O
Vent: O 13 km/h
Temperatura: 15°C
Rosada: 15°C
Humitat: 100%
Baròmetre: 1017 hPa
Nuvolositat: Parcialment cobert
Visibilitat: 6 km
2018/10/19 20:55 LIBA 192055Z 28007KT 6000 NSC 15/15 Q1017 RMK SKC VIS MIN 6000 WIND THR11 28008KT WIND THR29 /////KT WHT
 
LIBF - Foggia/Gino Lisa, Italy
Distància des de l'estació: ONO 126km
Actualització: 20/10/2018 17:50
NO actualitzat
Seré
Seré
 Vent del NNO
Vent: NNO 24 km/h
Temperatura: 20°C
Rosada: 13°C
Humitat: 64%
Baròmetre: 1020 hPa
Resum: Seré
Visibilitat: major de 10 km
2018/10/20 15:50 LIBF 201550Z 34013KT CAVOK 20/13 Q1020
LIBN - Lecce (it-Afb), Italy
Distància des de l'estació: SE 132km
Actualització: 21/10/2018 01:55
Seré
Seré
 Vent del NO
Vent: NO 15 km/h
Temperatura: 16°C
Rosada: 16°C
Humitat: 100%
Baròmetre: 1018 hPa
Resum: Seré
Visibilitat: major de 10 km
2018/10/20 23:55 LIBN 202355Z 32008KT CAVOK 16/16 Q1018 RMK SCT SCT200 VIS MIN 9999 WIND THR14 32008KT WIND THR32 32008KT BLU